Time;durP1;ratioP1;P1;durP2;ratioP2;P2;SDS_P1;SDS_P2;PMS_P1;PMS_P2;Temp;Humidity;BMP_temperature;BMP_pressure;BME280_temperature;BME280_humidity;BME280_pressure;Samples;Min_cycle;Max_cycle;Signal;HPM_P1;HPM_P2
2021/01/21 00:04:34;;;;;;;29.23;16.05;;;;;;;1.19;86.91;99529.95;102787;1109;79919;-62
2021/01/21 00:06:40;;;;;;;27.20;14.80;;;;;;;1.18;86.64;99532.77;102831;1109;64921;-59
2021/01/21 00:08:46;;;;;;;29.20;16.47;;;;;;;1.18;86.38;99535.43;102774;1109;81468;-67
2021/01/21 00:10:52;;;;;;;29.10;16.20;;;;;;;1.18;86.85;99530.92;102861;1109;72569;-68
2021/01/21 00:12:58;;;;;;;29.90;17.07;;;;;;;1.21;86.45;99532.44;102781;1109;85589;-72
2021/01/21 00:15:05;;;;;;;30.17;16.00;;;;;;;1.25;86.62;99528.50;102822;1108;80262;-71
2021/01/21 00:17:10;;;;;;;30.37;16.97;;;;;;;1.26;86.68;99532.01;102824;1109;64937;-69
2021/01/21 00:19:16;;;;;;;27.50;16.03;;;;;;;1.23;86.36;99529.65;102851;1109;82547;-68
2021/01/21 00:21:22;;;;;;;32.37;16.53;;;;;;;1.24;86.69;99526.83;102955;1109;72309;-71
2021/01/21 00:23:30;;;;;;;33.80;17.10;;;;;;;1.22;86.68;99527.97;102941;1109;85538;-68
2021/01/21 00:25:36;;;;;;;28.70;16.83;;;;;;;1.21;86.54;99536.95;102779;1109;77661;-72
2021/01/21 00:27:42;;;;;;;30.63;16.60;;;;;;;1.19;86.49;99532.61;102816;1109;64784;-69
2021/01/21 00:29:48;;;;;;;30.33;16.00;;;;;;;1.17;86.70;99523.95;102767;1109;82978;-65
2021/01/21 00:31:54;;;;;;;33.43;18.20;;;;;;;1.18;86.31;99530.11;102775;1112;71883;-62
2021/01/21 00:33:59;;;;;;;39.10;20.43;;;;;;;1.16;86.48;99521.42;102773;1109;86442;-64
2021/01/21 00:36:06;;;;;;;33.30;18.25;;;;;;;1.14;86.54;99528.73;102871;1109;79978;-72
2021/01/21 00:38:12;;;;;;;28.90;15.17;;;;;;;1.14;86.68;99534.89;103052;1109;65123;-73
2021/01/21 00:40:18;;;;;;;34.87;17.93;;;;;;;1.19;86.36;99535.27;102813;1109;82308;-75
2021/01/21 00:42:24;;;;;;;36.93;19.77;;;;;;;1.18;86.26;99538.91;102801;1109;72535;-68
2021/01/21 00:44:30;;;;;;;40.43;18.43;;;;;;;1.16;86.73;99535.56;102793;1109;86073;-73
2021/01/21 00:46:36;;;;;;;36.90;18.87;;;;;;;1.16;86.68;99534.72;102808;1109;77797;-76
2021/01/21 00:48:42;;;;;;;35.67;19.20;;;;;;;1.19;86.61;99539.74;102824;1109;64797;-68
2021/01/21 00:50:48;;;;;;;39.00;19.57;;;;;;;1.25;86.77;99544.47;102822;1109;82234;-68
2021/01/21 00:52:54;;;;;;;39.40;19.60;;;;;;;1.29;86.81;99537.88;102798;1109;73227;-68
2021/01/21 00:55:00;;;;;;;34.00;19.40;;;;;;;1.28;86.57;99536.19;102852;1105;84416;-70
2021/01/21 00:57:06;;;;;;;36.77;19.30;;;;;;;1.27;86.57;99541.64;103004;1105;78298;-70
2021/01/21 00:59:12;;;;;;;39.13;19.03;;;;;;;1.26;86.42;99542.65;103016;1105;64944;-65
2021/01/21 01:01:19;;;;;;;34.43;19.43;;;;;;;1.23;86.43;99538.47;103044;1109;82813;-69
2021/01/21 01:03:25;;;;;;;37.43;19.63;;;;;;;1.25;86.29;99539.15;103049;1109;72244;-70
2021/01/21 01:05:31;;;;;;;34.00;19.47;;;;;;;1.19;86.36;99537.92;103107;1107;84607;-63
2021/01/21 01:07:36;;;;;;;35.47;19.17;;;;;;;1.18;86.19;99538.91;103056;1109;79581;-68
2021/01/21 01:09:42;;;;;;;38.07;19.67;;;;;;;1.17;86.45;99545.23;103050;1109;64934;-61
2021/01/21 01:11:48;;;;;;;39.57;19.83;;;;;;;1.19;86.47;99539.74;103100;1109;83010;-60
2021/01/21 01:13:54;;;;;;;36.93;19.97;;;;;;;1.18;86.30;99533.58;103102;1109;71770;-65
2021/01/21 01:16:00;;;;;;;39.40;20.70;;;;;;;1.16;86.46;99535.56;103087;1109;86221;-67
2021/01/21 01:18:06;;;;;;;34.13;18.80;;;;;;;1.10;86.24;99538.82;103045;1109;79931;-68
2021/01/21 01:20:13;;;;;;;35.27;19.20;;;;;;;1.03;86.25;99539.58;103129;1109;63649;-67
2021/01/21 01:22:19;;;;;;;36.50;20.15;;;;;;;1.00;86.16;99535.40;103109;1109;83077;-66
2021/01/21 01:24:25;;;;;;;39.13;20.20;;;;;;;0.95;86.23;99542.16;103111;1108;71357;-66
2021/01/21 01:26:31;;;;;;;33.47;18.67;;;;;;;0.92;86.18;99542.45;103296;1105;84818;-65
2021/01/21 01:28:36;;;;;;;36.50;20.20;;;;;;;0.91;86.24;99535.44;103262;1105;79045;-63
2021/01/21 01:30:43;;;;;;;35.10;18.83;;;;;;;0.85;86.11;99542.19;103282;1105;64895;-64
2021/01/21 01:32:50;;;;;;;36.90;19.70;;;;;;;0.78;85.95;99537.63;103289;1105;81542;-62
2021/01/21 01:34:56;;;;;;;35.97;19.37;;;;;;;0.69;85.93;99535.87;103351;1106;72425;-63
2021/01/21 01:37:03;;;;;;;35.77;18.80;;;;;;;0.59;85.90;99528.78;103332;1105;84544;-65
2021/01/21 01:39:09;;;;;;;37.23;20.60;;;;;;;0.53;85.94;99536.49;103314;1105;77333;-66
2021/01/21 01:41:15;;;;;;;36.70;20.53;;;;;;;0.52;86.15;99532.99;103270;1105;64946;-65
2021/01/21 01:43:21;;;;;;;35.20;19.83;;;;;;;0.47;86.16;99529.94;103324;1105;82698;-69
2021/01/21 01:45:27;;;;;;;36.43;20.00;;;;;;;0.42;86.04;99531.36;103375;1105;73006;-72
2021/01/21 01:47:34;;;;;;;35.70;20.37;;;;;;;0.42;86.23;99529.55;103357;1105;84113;-72
2021/01/21 01:49:40;;;;;;;40.27;21.27;;;;;;;0.40;86.50;99530.68;103227;1105;79245;-64
2021/01/21 01:51:45;;;;;;;40.67;20.60;;;;;;;0.41;86.30;99525.20;103123;1106;64850;-60
2021/01/21 01:53:51;;;;;;;35.13;20.20;;;;;;;0.42;86.17;99529.55;103168;1105;83268;-60
2021/01/21 01:55:58;;;;;;;33.90;19.33;;;;;;;0.43;86.25;99531.23;103270;1105;74693;-61
2021/01/21 01:58:04;;;;;;;37.90;20.80;;;;;;;0.45;86.35;99534.58;103271;1105;84863;-59
2021/01/21 02:00:13;;;;;;;39.07;20.77;;;;;;;0.45;86.37;99531.92;103283;1105;78695;-68
2021/01/21 02:02:19;;;;;;;38.70;19.77;;;;;;;0.44;86.40;99527.58;103284;1105;64892;-67
2021/01/21 02:04:25;;;;;;;34.17;19.67;;;;;;;0.47;86.41;99524.62;103289;1105;81870;-66
2021/01/21 02:06:31;;;;;;;33.97;19.20;;;;;;;0.43;86.53;99531.23;103301;1105;72461;-66
2021/01/21 02:08:37;;;;;;;36.97;19.40;;;;;;;0.38;86.35;99522.88;103291;1105;85912;-66
2021/01/21 02:10:43;;;;;;;32.90;18.30;;;;;;;0.38;86.27;99522.88;103287;1105;77947;-66
2021/01/21 02:13:13;;;;;;;36.20;19.53;;;;;;;0.37;86.41;99521.19;103268;1105;64894;-66
2021/01/21 02:15:36;;;;;;;35.00;20.00;;;;;;;0.38;86.41;99525.53;103297;1105;83870;-67
2021/01/21 02:17:50;;;;;;;35.70;18.47;;;;;;;0.47;86.87;99526.45;103361;1105;71668;-67
2021/01/21 02:20:57;;;;;;;35.80;19.67;;;;;;;0.48;86.57;99523.66;103352;1105;84298;-68
2021/01/21 02:23:52;;;;;;;37.13;19.80;;;;;;;0.52;86.66;99521.55;103089;1108;79601;-67
2021/01/21 02:26:05;;;;;;;39.23;20.90;;;;;;;0.54;86.61;99517.77;103119;1105;64901;-66
2021/01/21 02:28:52;;;;;;;32.15;17.55;;;;;;;0.53;86.80;99526.70;103318;1105;82733;-66
2021/01/21 02:31:24;;;;;;;36.33;19.77;;;;;;;0.54;86.67;99523.08;103346;1105;72696;-63
2021/01/21 02:33:57;;;;;;;37.00;19.47;;;;;;;0.52;86.78;99519.70;103322;1105;85305;-63
2021/01/21 02:36:09;;;;;;;38.30;20.73;;;;;;;0.48;86.63;99518.34;103270;1105;78479;-71
2021/01/21 02:38:16;;;;;;;40.20;20.90;;;;;;;0.50;86.63;99518.19;103293;1105;64783;-71
2021/01/21 02:40:23;;;;;;;35.57;21.53;;;;;;;0.54;86.69;99511.61;103307;1105;83464;-71
2021/01/21 02:42:29;;;;;;;37.27;19.87;;;;;;;0.53;86.59;99516.08;103294;1105;71195;-70
2021/01/21 02:44:35;;;;;;;36.37;20.73;;;;;;;0.52;86.74;99509.08;103303;1105;85177;-70
2021/01/21 02:46:41;;;;;;;41.73;21.60;;;;;;;0.49;86.79;99509.41;103265;1105;78328;-71
2021/01/21 02:48:47;;;;;;;41.40;22.50;;;;;;;0.48;86.76;99522.81;103275;1106;64825;-70
2021/01/21 02:51:01;;;;;;;37.20;21.00;;;;;;;0.45;86.55;99512.48;103301;1105;82458;-63
2021/01/21 02:53:07;;;;;;;39.27;22.13;;;;;;;0.43;86.34;99512.64;103327;1105;70981;-63
2021/01/21 02:55:24;;;;;;;37.47;21.83;;;;;;;0.43;86.66;99512.64;103274;1104;84326;-70
2021/01/21 02:57:39;;;;;;;41.90;22.63;;;;;;;0.48;86.59;99506.88;103278;1105;79019;-71
2021/01/21 02:59:45;;;;;;;38.73;20.93;;;;;;;0.49;86.87;99509.41;103323;1105;65325;-61
2021/01/21 03:01:53;;;;;;;39.20;21.73;;;;;;;0.49;86.70;99504.09;103272;1105;83148;-62
2021/01/21 03:04:00;;;;;;;43.93;23.10;;;;;;;0.49;86.71;99517.38;103278;1105;73984;-62
2021/01/21 03:06:08;;;;;;;41.27;22.57;;;;;;;0.53;86.71;99512.58;103251;1105;86591;-64
2021/01/21 03:08:14;;;;;;;38.63;22.10;;;;;;;0.54;86.67;99511.61;103281;1105;77455;-63
2021/01/21 03:10:24;;;;;;;37.93;21.37;;;;;;;0.49;86.81;99509.41;103248;1105;64835;-70
2021/01/21 03:12:30;;;;;;;39.33;22.47;;;;;;;0.46;86.62;99515.01;103269;1105;84144;-70
2021/01/21 03:14:36;;;;;;;40.23;22.30;;;;;;;0.44;86.66;99511.64;103277;1105;71768;-63
2021/01/21 03:16:42;;;;;;;42.90;22.77;;;;;;;0.45;86.67;99513.32;103293;1105;85614;-62
2021/01/21 03:18:51;;;;;;;40.97;22.43;;;;;;;0.50;86.68;99504.90;103303;1105;78921;-64
2021/01/21 03:20:57;;;;;;;40.90;22.43;;;;;;;0.56;86.76;99504.31;103322;1105;64838;-64
2021/01/21 03:23:03;;;;;;;41.23;22.10;;;;;;;0.60;86.80;99511.83;103283;1105;82616;-66
2021/01/21 03:25:11;;;;;;;43.20;22.10;;;;;;;0.58;86.67;99505.00;103252;1105;74416;-63
2021/01/21 03:27:19;;;;;;;45.27;23.53;;;;;;;0.56;86.73;99501.66;103320;1105;83982;-64
2021/01/21 03:29:24;;;;;;;40.10;23.00;;;;;;;0.55;86.81;99503.47;103262;1105;78606;-69
2021/01/21 03:31:30;;;;;;;42.07;22.80;;;;;;;0.59;86.81;99504.86;103316;1105;64837;-71
2021/01/21 03:33:36;;;;;;;41.53;23.20;;;;;;;0.60;86.87;99511.02;103290;1105;83225;-71
2021/01/21 03:35:42;;;;;;;40.77;23.23;;;;;;;0.59;86.62;99510.18;103328;1105;72977;-71
2021/01/21 03:37:51;;;;;;;40.03;21.70;;;;;;;0.65;86.63;99513.22;103278;1106;84917;-70
2021/01/21 03:40:00;;;;;;;42.40;22.40;;;;;;;0.63;86.55;99505.41;103291;1105;79024;-71
2021/01/21 03:42:07;;;;;;;38.00;22.50;;;;;;;0.64;86.66;99514.20;103337;1106;64780;-71
2021/01/21 03:44:13;;;;;;;40.77;23.57;;;;;;;0.63;86.69;99512.55;103277;1105;80880;-70
2021/01/21 03:46:18;;;;;;;44.00;22.95;;;;;;;0.59;86.67;99515.50;103270;1105;72972;-70
2021/01/21 03:48:24;;;;;;;42.83;24.40;;;;;;;0.58;86.53;99518.28;103304;1105;85093;-71
2021/01/21 03:50:31;;;;;;;40.73;23.37;;;;;;;0.58;86.65;99520.94;103280;1106;79373;-70
2021/01/21 03:52:37;;;;;;;41.63;23.90;;;;;;;0.55;86.68;99513.26;103313;1105;65045;-70
2021/01/21 03:54:46;;;;;;;49.93;25.90;;;;;;;0.49;86.63;99519.19;103262;1106;83497;-63
2021/01/21 03:56:52;;;;;;;43.27;23.63;;;;;;;0.43;86.71;99522.42;103247;1106;72649;-65
2021/01/21 03:58:57;;;;;;;45.35;24.00;;;;;;;0.46;86.63;99520.32;103267;1106;86109;-63
2021/01/21 04:01:03;;;;;;;41.10;23.57;;;;;;;0.50;86.63;99515.53;103263;1105;79142;-71
2021/01/21 04:03:09;;;;;;;48.70;26.47;;;;;;;0.50;86.63;99521.69;103332;1106;64908;-70
2021/01/21 04:05:18;;;;;;;48.60;26.57;;;;;;;0.42;86.58;99524.23;103317;1105;82907;-64
2021/01/21 04:07:23;;;;;;;53.40;27.03;;;;;;;0.37;86.68;99515.88;103298;1106;72799;-64
2021/01/21 04:09:29;;;;;;;51.47;28.63;;;;;;;0.35;86.45;99528.48;103292;1105;83685;-64
2021/01/21 04:11:35;;;;;;;48.03;27.47;;;;;;;0.33;86.50;99522.45;103296;1106;79444;-63
2021/01/21 04:13:41;;;;;;;48.03;27.57;;;;;;;0.31;86.50;99519.11;103261;1105;64965;-64
2021/01/21 04:15:47;;;;;;;44.20;25.97;;;;;;;0.28;86.54;99511.43;103300;1105;82877;-63
2021/01/21 04:17:52;;;;;;;51.70;26.90;;;;;;;0.31;86.77;99515.61;103345;1105;71950;-64
2021/01/21 04:19:58;;;;;;;50.73;26.57;;;;;;;0.26;86.53;99518.72;103296;1105;86268;-64
2021/01/21 04:22:04;;;;;;;46.57;24.60;;;;;;;0.21;86.44;99512.16;103244;1105;78991;-63
2021/01/21 04:24:13;;;;;;;45.47;25.17;;;;;;;0.22;86.83;99525.28;103288;1105;64905;-65
2021/01/21 04:26:19;;;;;;;50.27;26.30;;;;;;;0.18;86.75;99517.77;103359;1105;81025;-70
2021/01/21 04:28:24;;;;;;;51.40;27.87;;;;;;;0.13;86.62;99512.90;103308;1105;73570;-71
2021/01/21 04:30:30;;;;;;;54.50;28.43;;;;;;;0.13;86.58;99507.59;103313;1105;84144;-64
2021/01/21 04:32:36;;;;;;;43.93;25.43;;;;;;;0.18;86.64;99505.33;103272;1106;78355;-64
2021/01/21 04:34:42;;;;;;;49.33;27.33;;;;;;;0.24;86.81;99504.75;103266;1105;64834;-70
2021/01/21 04:36:51;;;;;;;48.63;25.77;;;;;;;0.22;86.82;99505.88;103269;1106;82820;-71
2021/01/21 04:38:56;;;;;;;48.10;26.00;;;;;;;0.22;86.59;99503.23;103274;1105;73071;-70
2021/01/21 04:41:03;;;;;;;42.30;25.47;;;;;;;0.18;86.51;99502.67;103290;1105;86270;-64
2021/01/21 04:43:08;;;;;;;46.23;26.37;;;;;;;0.19;86.63;99507.02;103283;1106;79875;-67
2021/01/21 04:45:18;;;;;;;48.27;26.63;;;;;;;0.22;86.68;99501.38;103329;1105;64821;-70
2021/01/21 04:47:26;;;;;;;47.00;25.83;;;;;;;0.23;86.55;99494.26;103293;1105;83048;-71
2021/01/21 04:49:33;;;;;;;44.33;24.77;;;;;;;0.26;86.48;99508.09;103299;1105;73156;-70
2021/01/21 04:51:40;;;;;;;43.57;24.47;;;;;;;0.26;86.48;99502.78;103281;1105;85701;-71
2021/01/21 04:53:54;;;;;;;42.40;25.10;;;;;;;0.26;86.53;99502.78;103277;1105;77816;-70
2021/01/21 04:56:02;;;;;;;41.70;24.15;;;;;;;0.33;86.58;99506.52;103284;1105;64937;-64
2021/01/21 04:58:17;;;;;;;43.57;24.53;;;;;;;0.34;86.69;99502.88;103280;1105;82946;-64
2021/01/21 05:00:26;;;;;;;46.00;24.20;;;;;;;0.36;86.44;99503.56;103331;1105;71113;-65
2021/01/21 05:02:32;;;;;;;43.83;24.67;;;;;;;0.34;86.56;99500.23;103302;1106;83748;-64
2021/01/21 05:04:38;;;;;;;42.70;24.10;;;;;;;0.39;86.55;99503.27;103263;1105;78555;-71
2021/01/21 05:06:46;;;;;;;45.13;24.53;;;;;;;0.40;86.50;99504.12;103277;1105;64767;-71
2021/01/21 05:08:52;;;;;;;39.40;22.60;;;;;;;0.42;86.68;99505.64;103243;1106;83561;-69
2021/01/21 05:10:57;;;;;;;40.53;24.27;;;;;;;0.43;86.53;99511.80;103335;1105;71390;-71
2021/01/21 05:13:04;;;;;;;41.00;22.93;;;;;;;0.41;86.46;99511.92;103303;1105;85438;-70
2021/01/21 05:15:11;;;;;;;44.20;23.20;;;;;;;0.43;86.45;99517.11;103328;1105;78148;-70
2021/01/21 05:17:17;;;;;;;40.97;23.67;;;;;;;0.42;86.38;99508.30;103304;1105;64952;-71
2021/01/21 05:19:25;;;;;;;45.20;24.57;;;;;;;0.41;86.39;99517.23;103311;1105;83128;-63
2021/01/21 05:21:31;;;;;;;40.77;23.40;;;;;;;0.43;86.34;99514.45;103271;1105;72201;-62
2021/01/21 05:23:37;;;;;;;41.87;23.47;;;;;;;0.45;86.48;99518.64;103297;1105;85459;-63
2021/01/21 05:25:44;;;;;;;45.27;23.57;;;;;;;0.43;86.39;99511.80;103287;1105;78804;-64
2021/01/21 05:27:50;;;;;;;42.73;24.60;;;;;;;0.43;86.36;99519.77;103320;1105;65043;-65
2021/01/21 05:30:00;;;;;;;42.27;23.00;;;;;;;0.46;86.36;99520.32;103302;1106;81112;-62
2021/01/21 05:32:07;;;;;;;41.90;24.23;;;;;;;0.49;86.46;99519.19;103302;1105;72673;-65
2021/01/21 05:34:19;;;;;;;39.97;21.70;;;;;;;0.50;86.49;99516.37;103295;1105;84718;-68
2021/01/21 05:36:26;;;;;;;44.07;24.43;;;;;;;0.52;86.47;99508.27;103300;1105;79598;-69
2021/01/21 05:38:33;;;;;;;42.83;23.30;;;;;;;0.54;86.39;99511.61;103307;1105;64930;-70
2021/01/21 05:40:46;;;;;;;38.03;22.77;;;;;;;0.55;86.50;99514.09;103291;1105;82874;-65
2021/01/21 05:42:55;;;;;;;42.00;24.03;;;;;;;0.58;86.36;99512.97;103317;1105;71085;-64
2021/01/21 05:45:03;;;;;;;40.77;22.23;;;;;;;0.54;86.41;99517.77;103332;1105;85240;-63
2021/01/21 05:47:12;;;;;;;44.27;23.57;;;;;;;0.55;86.31;99514.09;103271;1105;79290;-64
2021/01/21 05:49:18;;;;;;;42.03;23.37;;;;;;;0.55;86.20;99523.89;103295;1106;65057;-61
2021/01/21 05:51:24;;;;;;;43.47;23.77;;;;;;;0.56;86.29;99521.09;103261;1105;82613;-63
2021/01/21 05:53:30;;;;;;;43.90;25.13;;;;;;;0.55;86.42;99527.39;103320;1105;71910;-63
2021/01/21 05:55:39;;;;;;;42.50;21.53;;;;;;;0.52;86.35;99522.36;103334;1106;86437;-69
2021/01/21 05:57:46;;;;;;;42.75;21.00;;;;;;;0.50;86.19;99520.84;103278;1105;79303;-69
2021/01/21 05:59:53;;;;;;;42.50;23.73;;;;;;;0.45;86.27;99521.30;103313;1105;64867;-64
2021/01/21 06:02:00;;;;;;;39.30;22.43;;;;;;;0.47;86.20;99524.62;103273;1105;82706;-64
2021/01/21 06:04:08;;;;;;;38.27;22.97;;;;;;;0.49;86.11;99525.34;103302;1105;72361;-67
2021/01/21 06:06:15;;;;;;;40.67;21.80;;;;;;;0.48;86.27;99528.97;103309;1105;85038;-69
2021/01/21 06:08:23;;;;;;;46.83;24.63;;;;;;;0.48;86.07;99521.00;103264;1105;78601;-67
2021/01/21 06:10:34;;;;;;;43.50;23.73;;;;;;;0.47;86.06;99526.45;103312;1106;64891;-71
2021/01/21 06:12:40;;;;;;;38.45;21.10;;;;;;;0.53;86.26;99531.17;103296;1105;82884;-71
2021/01/21 06:14:48;;;;;;;38.20;22.97;;;;;;;0.49;86.22;99528.00;103301;1106;73612;-68
2021/01/21 06:16:58;;;;;;;40.70;22.13;;;;;;;0.50;86.11;99529.66;103282;1105;84717;-68
2021/01/21 06:19:04;;;;;;;45.13;23.47;;;;;;;0.53;86.18;99541.80;103268;1105;77720;-67
2021/01/21 06:21:20;;;;;;;41.77;22.80;;;;;;;0.55;86.18;99535.36;103286;1105;64892;-71
2021/01/21 06:23:27;;;;;;;40.43;21.87;;;;;;;0.63;86.43;99544.44;103318;1106;82932;-71
2021/01/21 06:25:35;;;;;;;43.63;23.33;;;;;;;0.67;86.10;99538.66;103323;1105;72609;-70
2021/01/21 06:27:43;;;;;;;39.23;21.70;;;;;;;0.67;86.06;99545.80;103332;1105;85564;-70
2021/01/21 06:29:50;;;;;;;41.97;22.40;;;;;;;0.72;86.12;99541.71;103317;1106;79295;-70
2021/01/21 06:32:04;;;;;;;40.53;23.97;;;;;;;0.75;86.31;99541.42;103280;1105;66613;-71
2021/01/21 06:34:17;;;;;;;;;;;;;;;0.79;86.23;99541.97;103296;1105;82181;-67
2021/01/21 06:36:27;;;;;;;39.87;22.17;;;;;;;0.86;86.23;99543.03;103295;1105;72406;-71
2021/01/21 06:38:40;;;;;;;39.53;22.03;;;;;;;0.85;86.23;99544.84;103295;1105;85062;-71
2021/01/21 06:40:53;;;;;;;42.70;22.90;;;;;;;0.88;86.19;99543.74;103268;1105;77524;-68
2021/01/21 06:43:11;;;;;;;38.50;21.95;;;;;;;0.90;86.25;99544.42;103300;1106;64861;-68
2021/01/21 06:45:21;;;;;;;41.07;23.27;;;;;;;0.91;86.23;99546.92;103278;1105;81171;-71
2021/01/21 06:47:28;;;;;;;40.40;23.00;;;;;;;1.01;86.15;99549.53;103286;1105;72387;-70
2021/01/21 06:49:34;;;;;;;40.37;23.87;;;;;;;1.06;86.05;99545.44;103277;1105;84774;-69
2021/01/21 06:51:42;;;;;;;38.63;22.07;;;;;;;1.08;86.03;99553.26;103281;1105;79427;-70
2021/01/21 06:53:54;;;;;;;36.20;21.17;;;;;;;1.09;86.07;99547.80;103314;1105;64938;-70
2021/01/21 06:56:00;;;;;;;37.00;22.73;;;;;;;1.12;85.96;99549.33;103313;1106;82563;-71
2021/01/21 06:58:07;;;;;;;37.80;21.70;;;;;;;1.23;85.79;99548.27;103271;1105;71767;-73
2021/01/21 07:00:17;;;;;;;37.57;22.30;;;;;;;1.28;86.21;99554.81;103305;1106;86449;-66
2021/01/21 07:02:47;;;;;;;38.37;21.93;;;;;;;1.33;85.83;99554.34;103266;1105;79065;-66
2021/01/21 07:05:14;;;;;;;36.27;20.67;;;;;;;1.29;85.83;99556.50;103361;1105;64972;-72
2021/01/21 07:07:19;;;;;;;44.47;24.73;;;;;;;1.34;85.98;99564.85;103378;1105;80981;-71
2021/01/21 07:09:26;;;;;;;36.97;22.53;;;;;;;1.36;85.60;99546.06;103405;1106;72570;-70
2021/01/21 07:11:32;;;;;;;38.77;23.97;;;;;;;1.41;85.78;99554.42;103300;1106;84478;-71
2021/01/21 07:13:39;;;;;;;36.60;22.03;;;;;;;1.47;85.58;99554.66;103296;1105;79690;-71
2021/01/21 07:15:47;;;;;;;37.90;21.90;;;;;;;1.54;85.83;99558.37;103271;1105;64880;-71
2021/01/21 07:17:53;;;;;;;36.10;21.33;;;;;;;1.57;85.48;99550.09;103268;1106;83345;-72
2021/01/21 07:20:05;;;;;;;41.57;22.83;;;;;;;1.59;85.59;99558.75;103271;1105;71770;-66
2021/01/21 07:22:20;;;;;;;40.07;23.30;;;;;;;1.73;85.86;99552.08;103275;1105;84959;-65
2021/01/21 07:24:30;;;;;;;33.70;21.30;;;;;;;1.85;85.69;99548.16;103285;1105;77542;-64
2021/01/21 07:26:40;;;;;;;35.53;22.37;;;;;;;1.91;85.66;99554.69;103272;1105;64764;-67
2021/01/21 07:29:09;;;;;;;36.50;21.83;;;;;;;1.92;85.00;99554.55;103291;1105;83238;-65
2021/01/21 07:31:14;;;;;;;35.30;21.73;;;;;;;1.93;85.32;99555.36;103322;1105;72159;-66
2021/01/21 07:33:26;;;;;;;45.43;28.20;;;;;;;1.91;85.22;99557.36;103277;1105;85529;-66
2021/01/21 07:35:41;;;;;;;40.87;23.93;;;;;;;1.94;84.69;99552.56;103354;1105;78056;-72
2021/01/21 07:37:47;;;;;;;33.47;22.27;;;;;;;1.87;84.88;99545.36;103273;1105;64863;-73
2021/01/21 07:40:02;;;;;;;36.50;21.40;;;;;;;1.89;84.83;99548.70;103269;1105;83769;-72
2021/01/21 07:42:08;;;;;;;33.50;21.17;;;;;;;1.92;84.84;99540.40;103261;1106;72397;-73
2021/01/21 07:44:13;;;;;;;34.77;21.60;;;;;;;1.98;85.05;99537.13;103315;1105;85314;-70
2021/01/21 07:46:29;;;;;;;36.27;21.70;;;;;;;2.05;84.71;99535.48;103275;1105;78358;-73
2021/01/21 07:48:34;;;;;;;39.10;22.27;;;;;;;2.05;84.60;99533.67;103313;1106;65007;-72
2021/01/21 07:50:43;;;;;;;38.23;22.63;;;;;;;2.10;84.63;99536.69;103327;1105;83602;-66
2021/01/21 07:52:50;;;;;;;41.57;24.33;;;;;;;2.11;84.76;99543.70;103284;1105;73702;-68
2021/01/21 07:54:56;;;;;;;45.53;26.63;;;;;;;2.18;84.44;99527.91;103313;1105;85869;-67
2021/01/21 07:57:02;;;;;;;41.07;27.40;;;;;;;2.20;84.47;99528.58;103254;1105;79712;-67
2021/01/21 07:59:07;;;;;;;35.73;23.07;;;;;;;2.21;84.11;99522.27;103304;1105;64837;-67
2021/01/21 08:01:14;;;;;;;35.17;22.67;;;;;;;2.24;84.28;99522.80;103349;1105;81401;-71
2021/01/21 08:03:41;;;;;;;37.17;23.33;;;;;;;2.24;84.08;99522.80;103296;1105;71285;-71
2021/01/21 08:05:47;;;;;;;37.20;22.80;;;;;;;2.30;83.96;99527.50;103045;1106;84465;-71
2021/01/21 08:07:55;;;;;;;36.73;20.43;;;;;;;2.32;84.22;99514.84;103256;1105;79387;-71
2021/01/21 08:10:11;;;;;;;35.70;21.93;;;;;;;2.38;84.22;99524.88;103338;1105;64857;-68
2021/01/21 08:12:17;;;;;;;38.83;22.60;;;;;;;2.45;83.95;99530.39;103279;1105;82016;-67
2021/01/21 08:14:22;;;;;;;37.63;21.80;;;;;;;2.49;83.91;99520.25;103306;1105;72547;-67
2021/01/21 08:16:31;;;;;;;40.87;23.90;;;;;;;2.55;83.74;99525.80;103238;1106;85750;-67
2021/01/21 08:18:41;;;;;;;35.60;22.47;;;;;;;2.61;83.78;99530.47;103307;1106;78837;-67
2021/01/21 08:20:47;;;;;;;39.03;22.93;;;;;;;2.66;83.50;99517.52;103311;1105;64831;-62
2021/01/21 08:23:02;;;;;;;35.73;22.97;;;;;;;2.70;83.47;99518.84;103276;1105;83101;-63
2021/01/21 08:25:11;;;;;;;36.53;24.27;;;;;;;2.74;83.38;99514.88;103250;1105;71803;-63
2021/01/21 08:27:19;;;;;;;33.70;20.10;;;;;;;2.77;83.10;99513.72;103281;1105;83743;-63
2021/01/21 08:29:32;;;;;;;31.63;20.97;;;;;;;2.80;83.50;99503.53;103255;1105;78650;-63
2021/01/21 08:31:44;;;;;;;35.28;23.18;;;;;;;2.83;83.68;99508.55;103275;1105;64828;-62
2021/01/21 08:33:55;;;;;;;35.63;22.20;;;;;;;2.90;83.26;99514.92;103314;1105;82354;-62
2021/01/21 08:36:05;;;;;;;32.77;19.97;;;;;;;2.95;82.95;99509.94;103364;1105;71657;-73
2021/01/21 08:38:14;;;;;;;39.97;22.43;;;;;;;3.01;83.25;99515.61;103320;1105;85489;-72
2021/01/21 08:40:24;;;;;;;35.87;22.03;;;;;;;3.07;82.68;99513.14;103272;1105;79480;-63
2021/01/21 08:42:30;;;;;;;35.63;22.57;;;;;;;3.10;82.16;99510.15;103308;1105;64876;-62
2021/01/21 08:44:39;;;;;;;39.87;22.73;;;;;;;3.13;82.40;99512.45;103268;1105;83472;-63
2021/01/21 08:46:59;;;;;;;36.60;21.77;;;;;;;3.26;82.80;99510.17;103370;1105;71621;-62
2021/01/21 08:49:12;;;;;;;30.67;20.67;;;;;;;3.35;81.94;99514.50;103307;1105;83791;-69
2021/01/21 08:51:38;;;;;;;35.23;22.82;;;;;;;3.39;82.06;99513.19;103265;1106;78938;-72
2021/01/21 08:53:43;;;;;;;37.00;21.87;;;;;;;3.56;82.13;99514.03;103284;1106;64927;-71
2021/01/21 08:55:52;;;;;;;33.43;20.97;;;;;;;3.68;82.21;99512.69;103253;1105;83164;-70
2021/01/21 08:58:05;;;;;;;32.80;21.70;;;;;;;3.92;82.74;99512.70;103267;1105;72338;-72
2021/01/21 09:00:16;;;;;;;34.63;21.80;;;;;;;4.88;82.46;99499.20;103315;1105;85019;-72
2021/01/21 09:02:42;;;;;;;28.93;20.30;;;;;;;5.78;81.62;99501.09;103234;1105;78459;-72
2021/01/21 09:05:04;;;;;;;30.33;21.00;;;;;;;6.70;80.71;99499.84;103261;1106;64889;-70
2021/01/21 09:07:11;;;;;;;29.90;20.43;;;;;;;7.82;79.76;99497.35;103305;1105;81955;-66
2021/01/21 09:09:30;;;;;;;28.50;19.97;;;;;;;8.96;78.36;99493.33;103183;1105;71915;-71
2021/01/21 09:11:40;;;;;;;29.90;19.75;;;;;;;10.00;78.98;99488.16;103326;1105;84771;-72
2021/01/21 09:13:52;;;;;;;25.93;18.93;;;;;;;10.79;77.10;99490.78;103293;1105;77611;-72
2021/01/21 09:16:00;;;;;;;25.43;18.67;;;;;;;11.18;75.95;99495.17;103315;1106;64924;-72
2021/01/21 09:18:07;;;;;;;24.63;18.10;;;;;;;11.57;75.33;99486.85;103240;1105;83929;-72
2021/01/21 09:20:26;;;;;;;24.90;18.87;;;;;;;11.89;74.20;99485.02;103302;1105;72415;-63
2021/01/21 09:22:41;;;;;;;24.17;17.87;;;;;;;12.40;73.12;99485.59;103283;1105;86422;-65
2021/01/21 09:25:03;;;;;;;23.83;18.07;;;;;;;11.97;68.83;99490.15;103268;1105;77293;-75
2021/01/21 09:27:18;;;;;;;23.43;17.10;;;;;;;11.30;67.52;99498.03;103335;1106;64912;-76
2021/01/21 09:29:51;;;;;;;23.95;17.60;;;;;;;10.58;68.46;99488.33;103358;1105;81070;-63
2021/01/21 09:31:57;;;;;;;24.57;18.20;;;;;;;11.13;71.32;99487.72;103325;1105;74173;-65
2021/01/21 09:34:06;;;;;;;23.07;17.07;;;;;;;11.86;70.58;99488.16;103294;1106;85164;-67
2021/01/21 09:36:14;;;;;;;25.03;18.63;;;;;;;12.42;68.90;99478.06;103306;1105;79691;-70
2021/01/21 09:38:20;;;;;;;21.07;17.07;;;;;;;13.02;68.57;99478.22;103310;1106;64662;-67
2021/01/21 09:40:32;;;;;;;20.93;16.70;;;;;;;13.28;68.28;99482.52;103351;1105;84078;-74
2021/01/21 09:42:38;;;;;;;22.37;16.20;;;;;;;13.43;66.05;99480.23;103372;1105;72986;-74
2021/01/21 09:44:44;;;;;;;21.40;17.00;;;;;;;13.87;66.99;99474.33;103322;1105;86053;-66
2021/01/21 09:46:50;;;;;;;20.53;16.57;;;;;;;14.07;66.32;99471.30;103291;1106;79533;-66
2021/01/21 09:48:56;;;;;;;21.03;16.00;;;;;;;14.42;65.68;99468.65;103291;1105;64942;-68
2021/01/21 09:51:05;;;;;;;22.90;16.97;;;;;;;14.58;65.39;99474.20;103327;1105;83203;-77
2021/01/21 09:53:11;;;;;;;18.87;15.50;;;;;;;14.73;63.92;99469.08;103356;1105;72871;-74
2021/01/21 09:55:18;;;;;;;18.47;15.10;;;;;;;14.63;63.77;99463.43;103298;1105;84342;-64
2021/01/21 09:57:24;;;;;;;20.13;15.20;;;;;;;14.96;63.80;99460.05;103294;1105;78626;-62